Mlawa, Poland
Current Conditions -  °F | °C
As of 5:30 PM on Friday 31 Oct 2014 (Local Time) from EPMO Reporting Station
Broken Clouds Broken Clouds  
Wind Chill: 39°   Ceiling: 2200
Heat Index: 43°   Visibility: 6mi
Dew Point: 37°   Wind: 7mph
Humidity: 81%   Direction: 230°SW
Pressure: 30.33"   Gusts: NA
Location:  53.12°N, 20.36°E
Report Text: EPMO 311530Z 23006KT 9999 SCT020 BKN022 06/03 Q1027
Loading
Personal Weather Stations






























Interactive Weather Map
Tropical Storm Tracking
New forecast layout! Learn more

10-Day Weather Forecast

Advertisements
Track Severe Weather on mobile